createdAt,value
2017-12-28T00:01:47.895Z,3.50
2017-12-28T00:04:15.428Z,3.50
2017-12-28T00:06:42.898Z,3.50
2017-12-28T00:09:10.373Z,3.50
2017-12-28T00:11:37.854Z,3.50
2017-12-28T00:14:05.342Z,3.50
2017-12-28T00:16:32.955Z,3.50
2017-12-28T00:19:00.441Z,3.50
2017-12-28T00:21:28.683Z,3.50
2017-12-28T00:23:56.166Z,3.50
2017-12-28T00:26:23.631Z,3.50
2017-12-28T00:28:51.114Z,3.50
2017-12-28T00:31:18.624Z,3.50
2017-12-28T00:33:46.102Z,3.50
2017-12-28T00:36:13.598Z,3.50
2017-12-28T00:38:41.110Z,3.50
2017-12-28T00:41:08.587Z,3.50
2017-12-28T00:43:36.841Z,3.40
2017-12-28T00:46:04.296Z,3.40
2017-12-28T00:48:31.784Z,3.50
2017-12-28T00:50:59.355Z,3.40
2017-12-28T00:53:27.577Z,3.40
2017-12-28T00:55:55.144Z,3.40
2017-12-28T00:58:22.598Z,3.30
2017-12-28T01:00:50.110Z,3.30
2017-12-28T01:03:17.822Z,3.30
2017-12-28T01:05:45.387Z,3.30
2017-12-28T01:08:12.870Z,3.30
2017-12-28T01:10:40.359Z,3.30
2017-12-28T01:13:07.834Z,3.30
2017-12-28T01:15:35.291Z,3.30
2017-12-28T01:18:02.773Z,3.30
2017-12-28T01:20:30.251Z,3.20
2017-12-28T01:22:57.714Z,3.20
2017-12-28T01:25:25.207Z,3.20
2017-12-28T01:27:53.447Z,3.20
2017-12-28T01:30:20.917Z,3.10
2017-12-28T01:32:48.398Z,3.10
2017-12-28T01:35:16.655Z,3.10
2017-12-28T01:37:44.164Z,3.10
2017-12-28T01:40:11.666Z,3.10
2017-12-28T01:42:39.184Z,3.10
2017-12-28T01:45:06.699Z,3.00
2017-12-28T01:47:34.173Z,3.00
2017-12-28T01:50:02.419Z,3.00
2017-12-28T01:52:29.869Z,3.00
2017-12-28T01:54:57.469Z,3.00
2017-12-28T01:57:24.951Z,3.00
2017-12-28T01:59:52.479Z,3.00
2017-12-28T02:02:20.714Z,3.00
2017-12-28T02:04:48.274Z,3.00
2017-12-28T02:07:15.774Z,2.90
2017-12-28T02:09:44.017Z,2.90
2017-12-28T02:12:11.513Z,2.90
2017-12-28T02:14:39.747Z,2.90
2017-12-28T02:17:07.413Z,2.90
2017-12-28T02:19:35.692Z,2.80
2017-12-28T02:22:03.170Z,2.80
2017-12-28T02:24:31.428Z,2.80
2017-12-28T02:26:58.910Z,2.70
2017-12-28T02:29:27.139Z,2.70
2017-12-28T02:31:54.620Z,2.70
2017-12-28T02:34:22.105Z,2.60
2017-12-28T02:36:50.352Z,2.60
2017-12-28T02:39:17.828Z,2.50
2017-12-28T02:41:45.274Z,2.50
2017-12-28T02:44:12.761Z,2.40
2017-12-28T02:46:40.999Z,2.30
2017-12-28T02:49:08.471Z,2.30
2017-12-28T02:51:35.936Z,2.30
2017-12-28T02:54:04.222Z,2.30
2017-12-28T02:56:32.463Z,2.30
2017-12-28T02:59:00.006Z,2.30
2017-12-28T03:01:27.483Z,2.40
2017-12-28T03:03:54.934Z,2.40
2017-12-28T03:06:22.407Z,2.40
2017-12-28T03:08:49.862Z,2.30
2017-12-28T03:11:17.333Z,2.30
2017-12-28T03:13:44.800Z,2.30
2017-12-28T03:16:12.273Z,2.40
2017-12-28T03:18:40.491Z,2.50
2017-12-28T03:21:08.046Z,2.50
2017-12-28T03:23:35.508Z,2.50
2017-12-28T03:26:03.014Z,2.60
2017-12-28T03:28:31.253Z,2.60
2017-12-28T03:30:58.735Z,2.60
2017-12-28T03:33:26.199Z,2.70
2017-12-28T03:35:53.666Z,2.70
2017-12-28T03:38:21.225Z,2.80
2017-12-28T03:40:48.821Z,2.80
2017-12-28T03:43:16.291Z,2.80
2017-12-28T03:45:43.783Z,2.80
2017-12-28T03:48:11.283Z,2.80
2017-12-28T03:50:39.502Z,2.90
2017-12-28T03:53:07.244Z,2.80
2017-12-28T03:55:34.700Z,2.90
2017-12-28T03:58:02.252Z,2.90
2017-12-28T04:00:29.666Z,2.80
2017-12-28T04:02:57.183Z,2.90
2017-12-28T04:05:24.646Z,2.80
2017-12-28T04:07:52.121Z,2.80
2017-12-28T04:10:19.584Z,2.80
2017-12-28T04:12:47.085Z,2.70
2017-12-28T04:15:15.359Z,2.70
2017-12-28T04:17:43.585Z,2.70
2017-12-28T04:20:11.061Z,2.70
2017-12-28T04:22:38.550Z,2.70
2017-12-28T04:25:06.802Z,2.80
2017-12-28T04:27:34.283Z,2.80
2017-12-28T04:30:02.522Z,2.70
2017-12-28T04:32:30.006Z,2.70
2017-12-28T04:34:57.568Z,2.70
2017-12-28T04:37:25.030Z,2.70
2017-12-28T04:39:53.283Z,2.70
2017-12-28T04:42:20.814Z,2.60
2017-12-28T04:44:48.330Z,2.70
2017-12-28T04:47:16.589Z,2.70
2017-12-28T04:49:44.067Z,2.70
2017-12-28T04:52:12.333Z,2.60
2017-12-28T04:54:40.591Z,2.60
2017-12-28T04:57:08.061Z,2.60
2017-12-28T04:59:37.361Z,2.60
2017-12-28T05:02:04.915Z,2.60
2017-12-28T05:04:32.418Z,2.60
2017-12-28T05:06:59.899Z,2.60
2017-12-28T05:09:27.406Z,2.60
2017-12-28T05:11:54.889Z,2.60
2017-12-28T05:14:23.134Z,2.60
2017-12-28T05:16:50.624Z,2.60
2017-12-28T05:19:18.865Z,2.70
2017-12-28T05:21:46.356Z,2.60
2017-12-28T05:24:14.581Z,2.60
2017-12-28T05:26:42.061Z,2.60
2017-12-28T05:29:09.553Z,2.60
2017-12-28T05:31:37.123Z,2.70
2017-12-28T05:34:04.632Z,2.60
2017-12-28T05:36:33.609Z,2.50
2017-12-28T05:39:01.096Z,2.50
2017-12-28T05:41:28.577Z,2.40
2017-12-28T05:43:56.842Z,2.20
2017-12-28T05:46:25.074Z,2.10
2017-12-28T05:48:52.571Z,2.10
2017-12-28T05:51:20.112Z,2.10
2017-12-28T05:53:47.607Z,2.10
2017-12-28T05:56:15.072Z,2.10
2017-12-28T05:58:42.530Z,2.10
2017-12-28T06:01:10.786Z,2.10
2017-12-28T06:03:39.013Z,2.10
2017-12-28T06:06:06.482Z,2.10
2017-12-28T06:08:33.961Z,2.00
2017-12-28T06:11:01.436Z,1.90
2017-12-28T06:13:29.651Z,1.60
2017-12-28T06:15:57.126Z,1.60
2017-12-28T06:18:24.573Z,1.60
2017-12-28T06:20:52.048Z,1.50
2017-12-28T06:23:19.543Z,1.50
2017-12-28T06:25:47.805Z,1.40
2017-12-28T06:28:15.269Z,1.40
2017-12-28T06:30:42.819Z,1.40
2017-12-28T06:33:10.287Z,1.30
2017-12-28T06:35:37.760Z,1.30
2017-12-28T06:38:06.004Z,1.00
2017-12-28T06:40:33.443Z,1.00
2017-12-28T06:43:00.939Z,0.90
2017-12-28T06:45:28.440Z,0.90
2017-12-28T06:47:55.918Z,0.90
2017-12-28T06:50:23.477Z,0.90
2017-12-28T06:52:50.939Z,0.90
2017-12-28T06:55:18.426Z,0.80
2017-12-28T06:57:45.903Z,0.80
2017-12-28T07:00:14.138Z,0.70
2017-12-28T07:02:41.598Z,0.70
2017-12-28T07:05:09.079Z,0.80
2017-12-28T07:07:36.584Z,0.70
2017-12-28T07:10:04.043Z,0.70
2017-12-28T07:12:31.630Z,0.70
2017-12-28T07:14:59.140Z,0.70
2017-12-28T07:17:27.371Z,0.80
2017-12-28T07:19:54.844Z,0.80
2017-12-28T07:22:22.300Z,0.90
2017-12-28T07:24:49.764Z,1.00
2017-12-28T07:27:17.282Z,1.00
2017-12-28T07:29:44.745Z,1.00
2017-12-28T07:32:12.239Z,1.10
2017-12-28T07:34:39.727Z,1.20
2017-12-28T07:37:07.964Z,1.20
2017-12-28T07:39:35.417Z,1.20
2017-12-28T07:42:02.908Z,1.20
2017-12-28T07:44:30.384Z,1.20
2017-12-28T07:46:58.658Z,1.20
2017-12-28T07:49:26.882Z,1.30
2017-12-28T07:51:54.346Z,1.30
2017-12-28T07:54:21.848Z,1.30
2017-12-28T07:56:50.079Z,1.40
2017-12-28T07:59:17.560Z,1.40
2017-12-28T08:01:45.062Z,1.40
2017-12-28T08:04:13.799Z,1.40
2017-12-28T08:06:41.288Z,1.50
2017-12-28T08:09:09.540Z,1.50
2017-12-28T08:11:37.007Z,1.50
2017-12-28T08:14:04.487Z,1.50
2017-12-28T08:16:32.711Z,1.50
2017-12-28T08:19:01.726Z,1.50
2017-12-28T08:21:29.203Z,1.50
2017-12-28T08:23:57.447Z,1.60
2017-12-28T08:26:24.915Z,1.60
2017-12-28T08:28:52.482Z,1.70
2017-12-28T08:31:19.976Z,1.80
2017-12-28T08:33:48.209Z,1.90
2017-12-28T08:36:15.752Z,1.80
2017-12-28T08:38:43.223Z,1.90
2017-12-28T08:41:10.688Z,2.00
2017-12-28T08:43:38.229Z,2.00
2017-12-28T08:46:06.115Z,2.10
2017-12-28T08:48:33.604Z,2.00
2017-12-28T08:51:01.833Z,2.10
2017-12-28T08:53:29.401Z,2.10
2017-12-28T08:55:56.885Z,2.10
2017-12-28T08:58:25.123Z,2.20
2017-12-28T09:00:52.617Z,2.20
2017-12-28T09:03:20.089Z,2.50
2017-12-28T09:05:48.380Z,2.90
2017-12-28T09:08:16.683Z,3.00
2017-12-28T09:10:44.147Z,3.00
2017-12-28T09:13:11.659Z,2.90
2017-12-28T09:15:39.110Z,2.90
2017-12-28T09:18:06.573Z,2.90
2017-12-28T09:20:34.807Z,3.00
2017-12-28T09:23:02.278Z,3.00
2017-12-28T09:25:29.744Z,3.10
2017-12-28T09:27:57.242Z,3.10
2017-12-28T09:30:25.472Z,3.20
2017-12-28T09:32:52.937Z,3.20
2017-12-28T09:35:20.426Z,3.20
2017-12-28T09:37:48.770Z,3.30
2017-12-28T09:40:16.244Z,3.30
2017-12-28T09:42:43.747Z,3.20
2017-12-28T09:45:11.225Z,3.30
2017-12-28T09:47:38.725Z,3.40
2017-12-28T09:50:06.223Z,3.50
2017-12-28T09:52:33.700Z,3.50
2017-12-28T09:55:01.188Z,3.50
2017-12-28T09:57:28.719Z,3.40
2017-12-28T09:59:56.218Z,3.50
2017-12-28T10:02:24.481Z,4.90
2017-12-28T10:04:51.974Z,4.90
2017-12-28T10:07:20.205Z,5.70
2017-12-28T10:09:47.765Z,5.70
2017-12-28T10:12:15.231Z,5.60
2017-12-28T10:14:42.699Z,5.80
2017-12-28T10:17:11.011Z,6.20
2017-12-28T10:19:38.445Z,6.20
2017-12-28T10:22:06.688Z,6.40
2017-12-28T10:24:34.156Z,6.30
2017-12-28T10:27:01.648Z,5.70
2017-12-28T10:29:29.878Z,5.10
2017-12-28T10:31:57.346Z,5.10
2017-12-28T10:34:24.855Z,4.70
2017-12-28T10:36:53.178Z,4.00
2017-12-28T10:39:20.672Z,4.00
2017-12-28T10:41:48.971Z,3.90
2017-12-28T10:44:17.220Z,4.00
2017-12-28T10:46:44.687Z,3.90
2017-12-28T10:49:12.926Z,4.00
2017-12-28T10:51:40.389Z,3.90
2017-12-28T10:54:08.132Z,3.80
2017-12-28T10:56:35.676Z,3.50
2017-12-28T10:59:03.323Z,3.40
2017-12-28T11:01:31.568Z,3.60
2017-12-28T11:03:59.049Z,3.60
2017-12-28T11:06:27.397Z,3.80
2017-12-28T11:08:54.886Z,3.80
2017-12-28T11:11:23.124Z,3.60
2017-12-28T11:13:52.981Z,3.50
2017-12-28T11:16:20.959Z,3.50
2017-12-28T11:18:48.902Z,3.40
2017-12-28T11:21:20.326Z,3.40
2017-12-28T11:23:49.259Z,3.30
2017-12-28T11:26:17.782Z,3.40
2017-12-28T11:28:45.724Z,3.40
2017-12-28T11:31:16.852Z,3.60
2017-12-28T11:33:44.366Z,4.00
2017-12-28T11:36:11.881Z,4.10
2017-12-28T11:38:41.408Z,4.40
2017-12-28T11:41:08.891Z,4.40
2017-12-28T11:43:36.503Z,4.60
2017-12-28T11:46:04.237Z,5.00
2017-12-28T11:48:31.706Z,5.30
2017-12-28T11:50:59.659Z,5.00
2017-12-28T11:53:35.958Z,4.50
2017-12-28T11:56:09.974Z,4.00
2017-12-28T11:58:43.166Z,4.00
2017-12-28T12:01:10.657Z,4.10
2017-12-28T12:03:38.144Z,4.00
2017-12-28T12:06:07.586Z,4.00
2017-12-28T12:08:42.466Z,3.90
2017-12-28T12:11:09.948Z,3.90
2017-12-28T12:13:37.430Z,3.90
2017-12-28T12:16:05.673Z,3.80
2017-12-28T12:18:33.185Z,3.80
2017-12-28T12:21:00.707Z,3.70
2017-12-28T12:23:28.212Z,3.60
2017-12-28T12:25:55.701Z,3.60
2017-12-28T12:28:23.273Z,3.70
2017-12-28T12:30:50.946Z,3.70
2017-12-28T12:33:18.464Z,3.80
2017-12-28T12:35:45.946Z,3.80
2017-12-28T12:38:13.452Z,3.70
2017-12-28T12:40:41.692Z,3.80
2017-12-28T12:43:09.325Z,3.70
2017-12-28T12:45:36.789Z,3.70
2017-12-28T12:48:04.269Z,3.50
2017-12-28T12:50:31.742Z,3.40
2017-12-28T12:52:59.246Z,3.40
2017-12-28T12:55:26.718Z,3.40
2017-12-28T12:57:54.222Z,3.50
2017-12-28T13:00:22.500Z,3.40
2017-12-28T13:02:50.770Z,3.40
2017-12-28T13:05:18.247Z,3.40
2017-12-28T13:07:46.473Z,3.40
2017-12-28T13:10:13.958Z,3.40
2017-12-28T13:12:41.461Z,3.40
2017-12-28T13:15:08.984Z,3.40
2017-12-28T13:17:36.438Z,3.30
2017-12-28T13:20:03.969Z,3.40
2017-12-28T13:22:31.442Z,3.50
2017-12-28T13:24:58.940Z,3.40
2017-12-28T13:27:27.168Z,3.40
2017-12-28T13:29:54.645Z,3.40
2017-12-28T13:32:22.107Z,3.30
2017-12-28T13:34:49.564Z,3.20
2017-12-28T13:37:17.020Z,3.20
2017-12-28T13:39:44.492Z,3.20
2017-12-28T13:42:11.970Z,3.20
2017-12-28T13:44:39.696Z,3.00
2017-12-28T13:47:08.372Z,3.10
2017-12-28T13:49:35.839Z,3.00
2017-12-28T13:52:03.325Z,2.90
2017-12-28T13:54:31.559Z,3.30
2017-12-28T13:56:59.083Z,3.30
2017-12-28T13:59:26.550Z,3.40
2017-12-28T14:01:54.019Z,3.30
2017-12-28T14:04:21.692Z,3.30
2017-12-28T14:06:49.170Z,3.30
2017-12-28T14:09:17.290Z,3.20
2017-12-28T14:11:44.770Z,3.10
2017-12-28T14:14:12.246Z,3.20
2017-12-28T14:16:39.703Z,3.10
2017-12-28T14:19:07.193Z,3.00
2017-12-28T14:21:34.661Z,3.10
2017-12-28T14:24:03.044Z,3.20
2017-12-28T14:26:31.347Z,3.20
2017-12-28T14:28:59.619Z,3.10
2017-12-28T14:31:27.105Z,3.10
2017-12-28T14:33:54.583Z,3.00
2017-12-28T14:36:22.069Z,3.10
2017-12-28T14:38:50.516Z,3.00
2017-12-28T14:41:18.547Z,3.00
2017-12-28T14:43:46.455Z,3.00
2017-12-28T14:46:14.084Z,3.00
2017-12-28T14:48:41.541Z,3.00
2017-12-28T14:51:09.039Z,3.00
2017-12-28T14:53:36.506Z,3.00
2017-12-28T14:56:04.409Z,2.90
2017-12-28T14:58:32.727Z,2.80
2017-12-28T15:01:00.343Z,2.80
2017-12-28T15:03:28.591Z,2.80
2017-12-28T15:05:56.107Z,2.80
2017-12-28T15:08:23.571Z,2.80
2017-12-28T15:10:51.166Z,2.70
2017-12-28T15:13:18.752Z,2.70
2017-12-28T15:15:46.609Z,2.70
2017-12-28T15:18:14.073Z,2.70
2017-12-28T15:20:42.317Z,2.70
2017-12-28T15:23:09.790Z,2.70
2017-12-28T15:25:38.751Z,2.60
2017-12-28T15:28:06.228Z,2.60
2017-12-28T15:30:33.707Z,2.50
2017-12-28T15:33:01.182Z,2.30
2017-12-28T15:35:28.697Z,2.20
2017-12-28T15:37:56.204Z,2.00
2017-12-28T15:40:24.889Z,1.80
2017-12-28T15:43:06.329Z,1.80
2017-12-28T15:45:33.890Z,1.80
2017-12-28T15:48:01.452Z,1.70
2017-12-28T15:50:29.010Z,1.70
2017-12-28T15:52:56.832Z,1.60
2017-12-28T15:55:24.460Z,1.50
2017-12-28T15:57:53.443Z,1.40
2017-12-28T16:00:20.933Z,1.40
2017-12-28T16:02:49.184Z,1.30
2017-12-28T16:05:16.672Z,1.30
2017-12-28T16:07:45.120Z,1.20
2017-12-28T16:10:12.594Z,1.20
2017-12-28T16:12:40.100Z,1.10
2017-12-28T16:15:07.571Z,1.20
2017-12-28T16:17:35.066Z,1.20
2017-12-28T16:20:02.625Z,1.30
2017-12-28T16:22:30.109Z,1.40
2017-12-28T16:24:58.350Z,1.40
2017-12-28T16:27:25.857Z,1.40
2017-12-28T16:29:53.330Z,1.30
2017-12-28T16:32:20.890Z,1.30
2017-12-28T16:34:48.369Z,1.30
2017-12-28T16:37:15.895Z,1.30
2017-12-28T16:39:43.365Z,1.40
2017-12-28T16:42:10.853Z,1.40
2017-12-28T16:44:38.352Z,1.40
2017-12-28T16:47:06.574Z,1.30
2017-12-28T16:49:34.066Z,1.30
2017-12-28T16:52:01.546Z,1.20
2017-12-28T16:54:29.830Z,1.20
2017-12-28T16:56:58.278Z,1.20
2017-12-28T16:59:26.538Z,1.30
2017-12-28T17:01:54.004Z,1.30
2017-12-28T17:04:21.483Z,1.40
2017-12-28T17:06:48.994Z,1.50
2017-12-28T17:09:16.454Z,1.60
2017-12-28T17:11:43.941Z,1.70
2017-12-28T17:14:11.409Z,1.80
2017-12-28T17:16:38.888Z,1.90
2017-12-28T17:19:07.182Z,1.80
2017-12-28T17:21:35.425Z,1.70
2017-12-28T17:24:04.426Z,1.70
2017-12-28T17:26:31.917Z,1.70
2017-12-28T17:28:59.407Z,1.80
2017-12-28T17:31:26.926Z,1.90
2017-12-28T17:33:55.166Z,2.10
2017-12-28T17:36:22.652Z,2.10
2017-12-28T17:38:50.910Z,2.10
2017-12-28T17:41:18.385Z,2.10
2017-12-28T17:43:46.718Z,2.20
2017-12-28T17:46:14.188Z,2.20
2017-12-28T17:48:41.725Z,2.20
2017-12-28T17:51:09.908Z,2.20
2017-12-28T17:53:38.072Z,2.20
2017-12-28T17:56:05.575Z,2.30
2017-12-28T17:58:33.103Z,2.30
2017-12-28T18:01:00.562Z,2.20
2017-12-28T18:03:28.041Z,2.20
2017-12-28T18:05:55.588Z,2.30
2017-12-28T18:08:23.894Z,2.20
2017-12-28T18:10:51.363Z,2.20
2017-12-28T18:13:19.587Z,2.10
2017-12-28T18:15:47.511Z,2.00
2017-12-28T18:18:15.734Z,1.90
2017-12-28T18:20:43.280Z,1.90
2017-12-28T18:23:10.886Z,1.80
2017-12-28T18:25:38.453Z,1.80
2017-12-28T18:28:06.686Z,1.90
2017-12-28T18:30:34.183Z,1.90
2017-12-28T18:33:01.676Z,2.00
2017-12-28T18:35:29.185Z,2.00
2017-12-28T18:37:56.759Z,1.90
2017-12-28T18:40:24.356Z,2.00
2017-12-28T18:42:52.632Z,1.90
2017-12-28T18:45:20.458Z,1.90
2017-12-28T18:47:47.935Z,1.80
2017-12-28T18:50:16.203Z,1.60
2017-12-28T18:52:43.804Z,1.70
2017-12-28T18:55:11.291Z,1.60
2017-12-28T18:57:38.765Z,1.70
2017-12-28T19:00:06.237Z,1.70
2017-12-28T19:02:33.769Z,1.70
2017-12-28T19:05:01.266Z,1.80
2017-12-28T19:07:28.749Z,1.80
2017-12-28T19:09:56.245Z,1.70
2017-12-28T19:12:23.717Z,1.70
2017-12-28T19:14:51.203Z,1.70
2017-12-28T19:17:18.661Z,1.80
2017-12-28T19:19:46.129Z,1.90
2017-12-28T19:22:14.348Z,1.80
2017-12-28T19:24:43.217Z,1.80
2017-12-28T19:27:10.809Z,1.70
2017-12-28T19:29:38.486Z,1.70
2017-12-28T19:32:07.822Z,1.70
2017-12-28T19:34:36.052Z,1.70
2017-12-28T19:37:03.557Z,1.70
2017-12-28T19:39:31.858Z,1.70
2017-12-28T19:41:59.370Z,1.70
2017-12-28T19:44:26.905Z,1.80
2017-12-28T19:46:54.387Z,1.80
2017-12-28T19:49:22.691Z,1.80
2017-12-28T19:51:50.944Z,1.80
2017-12-28T19:54:18.503Z,1.80
2017-12-28T19:56:46.090Z,1.80
2017-12-28T19:59:14.321Z,1.80
2017-12-28T20:01:41.971Z,1.80
2017-12-28T20:04:09.508Z,1.90
2017-12-28T20:06:37.177Z,1.90
2017-12-28T20:09:04.676Z,1.90
2017-12-28T20:11:33.243Z,1.90
2017-12-28T20:14:00.729Z,1.90
2017-12-28T20:16:28.254Z,1.90
2017-12-28T20:18:55.843Z,1.80
2017-12-28T20:21:23.367Z,1.80
2017-12-28T20:23:50.853Z,1.70
2017-12-28T20:26:18.354Z,1.70
2017-12-28T20:28:46.698Z,1.60
2017-12-28T20:31:14.189Z,1.60
2017-12-28T20:33:42.487Z,1.80
2017-12-28T20:36:10.092Z,1.80
2017-12-28T20:38:38.363Z,1.90
2017-12-28T20:41:06.030Z,1.90
2017-12-28T20:43:33.534Z,1.90
2017-12-28T20:46:01.810Z,1.90
2017-12-28T20:48:30.078Z,1.90
2017-12-28T20:50:58.316Z,1.80
2017-12-28T20:53:25.811Z,1.80
2017-12-28T20:55:54.080Z,1.70
2017-12-28T20:58:24.601Z,1.70
2017-12-28T21:00:52.149Z,1.70
2017-12-28T21:03:20.452Z,1.70
2017-12-28T21:05:48.864Z,1.60
2017-12-28T21:08:16.332Z,1.60
2017-12-28T21:10:43.844Z,1.50
2017-12-28T21:13:11.374Z,1.40
2017-12-28T21:15:38.942Z,1.40
2017-12-28T21:18:06.468Z,1.40
2017-12-28T21:20:33.998Z,1.40
2017-12-28T21:23:01.599Z,1.30
2017-12-28T21:25:29.083Z,1.20
2017-12-28T21:27:56.607Z,1.20
2017-12-28T21:30:24.118Z,1.20
2017-12-28T21:32:51.789Z,1.10
2017-12-28T21:35:19.317Z,1.10
2017-12-28T21:37:47.711Z,1.00
2017-12-28T21:40:15.317Z,1.00
2017-12-28T21:42:43.060Z,1.00
2017-12-28T21:45:11.294Z,0.90
2017-12-28T21:47:38.868Z,0.90
2017-12-28T21:50:07.348Z,0.90
2017-12-28T21:52:36.085Z,0.90
2017-12-28T21:55:04.172Z,0.90
2017-12-28T21:57:31.915Z,1.00
2017-12-28T22:00:00.454Z,1.00
2017-12-28T22:02:28.316Z,1.00
2017-12-28T22:04:55.886Z,0.90
2017-12-28T22:07:23.342Z,0.90
2017-12-28T22:09:50.940Z,0.90
2017-12-28T22:12:18.480Z,0.90
2017-12-28T22:14:45.980Z,0.90
2017-12-28T22:17:13.447Z,0.80
2017-12-28T22:19:41.363Z,0.80
2017-12-28T22:22:08.826Z,0.90
2017-12-28T22:24:36.306Z,1.00
2017-12-28T22:27:04.981Z,1.00
2017-12-28T22:29:33.293Z,1.00
2017-12-28T22:32:01.016Z,1.00
2017-12-28T22:34:28.489Z,1.00
2017-12-28T22:36:55.969Z,1.00
2017-12-28T22:39:24.221Z,0.90
2017-12-28T22:41:51.681Z,0.90
2017-12-28T22:44:19.942Z,0.90
2017-12-28T22:46:47.411Z,0.90
2017-12-28T22:49:14.917Z,0.90
2017-12-28T22:51:42.374Z,0.90
2017-12-28T22:54:09.872Z,0.90
2017-12-28T22:56:38.269Z,0.90
2017-12-28T22:59:06.154Z,0.90
2017-12-28T23:01:33.648Z,1.00
2017-12-28T23:04:01.132Z,1.00
2017-12-28T23:06:29.170Z,1.00
2017-12-28T23:08:58.545Z,0.90
2017-12-28T23:11:26.510Z,0.90
2017-12-28T23:13:54.011Z,0.90
2017-12-28T23:16:21.506Z,0.90
2017-12-28T23:18:49.687Z,0.80
2017-12-28T23:21:18.032Z,0.90
2017-12-28T23:23:45.503Z,0.90
2017-12-28T23:26:13.383Z,0.90
2017-12-28T23:28:42.306Z,0.90
2017-12-28T23:31:11.009Z,0.80
2017-12-28T23:33:41.239Z,0.80
2017-12-28T23:36:08.930Z,0.90
2017-12-28T23:38:37.380Z,0.90
2017-12-28T23:41:05.127Z,0.90
2017-12-28T23:43:32.845Z,0.90
2017-12-28T23:46:04.426Z,0.90
2017-12-28T23:48:32.300Z,0.80
2017-12-28T23:51:02.599Z,0.80
2017-12-28T23:53:31.389Z,0.80
2017-12-28T23:56:01.140Z,0.80
2017-12-28T23:58:28.688Z,0.70
